sensor_id;sensor_type;location;lat;lon;timestamp;temperature;humidity
47521;DHT22;32291;52.010;4.446;2024-03-02T00:00:15;6.80;99.90
47521;DHT22;32291;52.010;4.446;2024-03-02T00:01:24;6.70;99.90
47521;DHT22;32291;52.010;4.446;2024-03-02T00:02:31;6.80;99.90
47521;DHT22;32291;52.010;4.446;2024-03-02T00:03:38;6.70;99.90
47521;DHT22;32291;52.010;4.446;2024-03-02T00:04:44;6.70;99.90
47521;DHT22;32291;52.010;4.446;2024-03-02T00:05:52;6.70;99.90
47521;DHT22;32291;52.010;4.446;2024-03-02T00:06:54;6.70;99.90
47521;DHT22;32291;52.010;4.446;2024-03-02T00:08:01;6.70;99.90
47521;DHT22;32291;52.010;4.446;2024-03-02T00:09:11;6.70;99.90
47521;DHT22;32291;52.010;4.446;2024-03-02T00:10:20;6.60;99.90
47521;DHT22;32291;52.010;4.446;2024-03-02T00:11:26;6.60;99.90
47521;DHT22;32291;52.010;4.446;2024-03-02T00:12:34;6.70;99.90
47521;DHT22;32291;52.010;4.446;2024-03-02T00:13:41;6.70;99.90
47521;DHT22;32291;52.010;4.446;2024-03-02T00:14:43;6.60;99.90
47521;DHT22;32291;52.010;4.446;2024-03-02T00:15:46;6.60;99.90
47521;DHT22;32291;52.010;4.446;2024-03-02T00:16:55;6.60;99.90
47521;DHT22;32291;52.010;4.446;2024-03-02T00:18:02;6.60;99.90
47521;DHT22;32291;52.010;4.446;2024-03-02T00:19:07;6.60;99.90
47521;DHT22;32291;52.010;4.446;2024-03-02T00:20:18;6.60;99.90
47521;DHT22;32291;52.010;4.446;2024-03-02T00:21:27;6.50;99.90
47521;DHT22;32291;52.010;4.446;2024-03-02T00:22:36;6.60;99.90
47521;DHT22;32291;52.010;4.446;2024-03-02T00:23:43;6.60;99.90
47521;DHT22;32291;52.010;4.446;2024-03-02T00:24:50;6.50;99.90
47521;DHT22;32291;52.010;4.446;2024-03-02T00:25:54;6.50;99.90
47521;DHT22;32291;52.010;4.446;2024-03-02T00:27:04;6.50;99.90
47521;DHT22;32291;52.010;4.446;2024-03-02T00:28:19;6.50;99.90
47521;DHT22;32291;52.010;4.446;2024-03-02T00:29:36;6.50;99.90
47521;DHT22;32291;52.010;4.446;2024-03-02T00:31:07;6.50;99.90
47521;DHT22;32291;52.010;4.446;2024-03-02T00:32:14;6.40;99.90
47521;DHT22;32291;52.010;4.446;2024-03-02T00:33:28;6.40;99.90
47521;DHT22;32291;52.010;4.446;2024-03-02T00:34:33;6.40;99.90
47521;DHT22;32291;52.010;4.446;2024-03-02T00:35:46;6.40;99.90
47521;DHT22;32291;52.010;4.446;2024-03-02T00:36:53;6.40;99.90
47521;DHT22;32291;52.010;4.446;2024-03-02T00:38:05;6.40;99.90
47521;DHT22;32291;52.010;4.446;2024-03-02T00:39:12;6.40;99.90
47521;DHT22;32291;52.010;4.446;2024-03-02T00:40:17;6.40;99.90
47521;DHT22;32291;52.010;4.446;2024-03-02T00:41:28;6.40;99.90
47521;DHT22;32291;52.010;4.446;2024-03-02T00:42:36;6.40;99.90
47521;DHT22;32291;52.010;4.446;2024-03-02T00:43:45;6.40;99.90
47521;DHT22;32291;52.010;4.446;2024-03-02T00:44:58;6.30;99.90
47521;DHT22;32291;52.010;4.446;2024-03-02T00:46:06;6.30;99.90
47521;DHT22;32291;52.010;4.446;2024-03-02T00:47:14;6.30;99.90
47521;DHT22;32291;52.010;4.446;2024-03-02T00:48:16;6.30;99.90
47521;DHT22;32291;52.010;4.446;2024-03-02T00:49:24;6.30;99.90
47521;DHT22;32291;52.010;4.446;2024-03-02T00:50:28;6.30;99.90
47521;DHT22;32291;52.010;4.446;2024-03-02T00:51:31;6.30;99.90
47521;DHT22;32291;52.010;4.446;2024-03-02T00:52:40;6.30;99.90
47521;DHT22;32291;52.010;4.446;2024-03-02T00:53:47;6.30;99.90
47521;DHT22;32291;52.010;4.446;2024-03-02T00:54:50;6.30;99.90
47521;DHT22;32291;52.010;4.446;2024-03-02T00:55:58;6.30;99.90
47521;DHT22;32291;52.010;4.446;2024-03-02T00:57:02;6.30;99.90
47521;DHT22;32291;52.010;4.446;2024-03-02T00:58:10;6.30;99.90
47521;DHT22;32291;52.010;4.446;2024-03-02T00:59:17;6.30;99.90
47521;DHT22;32291;52.010;4.446;2024-03-02T01:00:20;6.30;99.90
47521;DHT22;32291;52.010;4.446;2024-03-02T01:01:22;6.30;99.90
47521;DHT22;32291;52.010;4.446;2024-03-02T01:02:25;6.30;99.90
47521;DHT22;32291;52.010;4.446;2024-03-02T01:03:27;6.30;99.90
47521;DHT22;32291;52.010;4.446;2024-03-02T01:04:29;6.30;99.90
47521;DHT22;32291;52.010;4.446;2024-03-02T01:05:31;6.30;99.90
47521;DHT22;32291;52.010;4.446;2024-03-02T01:06:34;6.20;99.90
47521;DHT22;32291;52.010;4.446;2024-03-02T01:07:41;6.20;99.90
47521;DHT22;32291;52.010;4.446;2024-03-02T01:08:43;6.20;99.90
47521;DHT22;32291;52.010;4.446;2024-03-02T01:09:51;6.20;99.90
47521;DHT22;32291;52.010;4.446;2024-03-02T01:10:57;6.20;99.90
47521;DHT22;32291;52.010;4.446;2024-03-02T01:12:05;6.20;99.90
47521;DHT22;32291;52.010;4.446;2024-03-02T01:13:08;6.20;99.90
47521;DHT22;32291;52.010;4.446;2024-03-02T01:14:14;6.20;99.90
47521;DHT22;32291;52.010;4.446;2024-03-02T01:15:16;6.20;99.90
47521;DHT22;32291;52.010;4.446;2024-03-02T01:16:23;6.20;99.90
47521;DHT22;32291;52.010;4.446;2024-03-02T01:17:30;6.10;99.90
47521;DHT22;32291;52.010;4.446;2024-03-02T01:18:37;6.20;99.90
47521;DHT22;32291;52.010;4.446;2024-03-02T01:19:41;6.10;99.90
47521;DHT22;32291;52.010;4.446;2024-03-02T01:20:48;6.10;99.90
47521;DHT22;32291;52.010;4.446;2024-03-02T01:21:57;6.20;99.90
47521;DHT22;32291;52.010;4.446;2024-03-02T01:23:04;6.10;99.90
47521;DHT22;32291;52.010;4.446;2024-03-02T01:24:11;6.20;99.90
47521;DHT22;32291;52.010;4.446;2024-03-02T01:25:19;6.10;99.90
47521;DHT22;32291;52.010;4.446;2024-03-02T01:26:21;6.10;99.90
47521;DHT22;32291;52.010;4.446;2024-03-02T01:27:28;6.10;99.90
47521;DHT22;32291;52.010;4.446;2024-03-02T01:28:30;6.10;99.90
47521;DHT22;32291;52.010;4.446;2024-03-02T01:29:32;6.10;99.90
47521;DHT22;32291;52.010;4.446;2024-03-02T01:30:39;6.10;99.90
47521;DHT22;32291;52.010;4.446;2024-03-02T01:31:46;6.10;99.90
47521;DHT22;32291;52.010;4.446;2024-03-02T01:32:53;6.20;99.90
47521;DHT22;32291;52.010;4.446;2024-03-02T01:33:55;6.20;99.90
47521;DHT22;32291;52.010;4.446;2024-03-02T01:35:02;6.20;99.90
47521;DHT22;32291;52.010;4.446;2024-03-02T01:36:04;6.20;99.90
47521;DHT22;32291;52.010;4.446;2024-03-02T01:37:07;6.20;99.90
47521;DHT22;32291;52.010;4.446;2024-03-02T01:38:14;6.20;99.90
47521;DHT22;32291;52.010;4.446;2024-03-02T01:39:20;6.20;99.90
47521;DHT22;32291;52.010;4.446;2024-03-02T01:40:23;6.20;99.90
47521;DHT22;32291;52.010;4.446;2024-03-02T01:41:33;6.20;99.90
47521;DHT22;32291;52.010;4.446;2024-03-02T01:42:36;6.20;99.90
47521;DHT22;32291;52.010;4.446;2024-03-02T01:43:43;6.20;99.90
47521;DHT22;32291;52.010;4.446;2024-03-02T01:44:53;6.10;99.90
47521;DHT22;32291;52.010;4.446;2024-03-02T01:46:00;6.20;99.90
47521;DHT22;32291;52.010;4.446;2024-03-02T01:47:08;6.10;99.90
47521;DHT22;32291;52.010;4.446;2024-03-02T01:48:14;6.10;99.90
47521;DHT22;32291;52.010;4.446;2024-03-02T01:49:21;6.10;99.90
47521;DHT22;32291;52.010;4.446;2024-03-02T01:50:31;6.10;99.90
47521;DHT22;32291;52.010;4.446;2024-03-02T01:51:39;6.10;99.90
47521;DHT22;32291;52.010;4.446;2024-03-02T01:52:46;6.10;99.90
47521;DHT22;32291;52.010;4.446;2024-03-02T01:53:52;6.00;99.90
47521;DHT22;32291;52.010;4.446;2024-03-02T01:54:55;6.00;99.90
47521;DHT22;32291;52.010;4.446;2024-03-02T01:56:02;6.00;99.90
47521;DHT22;32291;52.010;4.446;2024-03-02T01:57:10;6.00;99.90
47521;DHT22;32291;52.010;4.446;2024-03-02T01:58:12;6.00;99.90
47521;DHT22;32291;52.010;4.446;2024-03-02T01:59:19;6.10;99.90
47521;DHT22;32291;52.010;4.446;2024-03-02T02:00:26;6.10;99.90
47521;DHT22;32291;52.010;4.446;2024-03-02T02:01:33;6.10;99.90
47521;DHT22;32291;52.010;4.446;2024-03-02T02:02:40;6.10;99.90
47521;DHT22;32291;52.010;4.446;2024-03-02T02:03:48;6.10;99.90
47521;DHT22;32291;52.010;4.446;2024-03-02T02:04:54;6.10;99.90
47521;DHT22;32291;52.010;4.446;2024-03-02T02:06:01;6.10;99.90
47521;DHT22;32291;52.010;4.446;2024-03-02T02:07:08;6.20;99.90
47521;DHT22;32291;52.010;4.446;2024-03-02T02:08:16;6.20;99.90
47521;DHT22;32291;52.010;4.446;2024-03-02T02:09:23;6.20;99.90
47521;DHT22;32291;52.010;4.446;2024-03-02T02:10:31;6.20;99.90
47521;DHT22;32291;52.010;4.446;2024-03-02T02:11:38;6.30;99.90
47521;DHT22;32291;52.010;4.446;2024-03-02T02:12:45;6.30;99.90
47521;DHT22;32291;52.010;4.446;2024-03-02T02:13:47;6.30;99.90
47521;DHT22;32291;52.010;4.446;2024-03-02T02:14:54;6.30;99.90
47521;DHT22;32291;52.010;4.446;2024-03-02T02:16:07;6.30;99.90
47521;DHT22;32291;52.010;4.446;2024-03-02T02:17:14;6.30;99.90
47521;DHT22;32291;52.010;4.446;2024-03-02T02:18:21;6.40;99.90
47521;DHT22;32291;52.010;4.446;2024-03-02T02:19:24;6.30;99.90
47521;DHT22;32291;52.010;4.446;2024-03-02T02:20:30;6.40;99.90
47521;DHT22;32291;52.010;4.446;2024-03-02T02:21:37;6.40;99.90
47521;DHT22;32291;52.010;4.446;2024-03-02T02:24:08;6.30;99.90
47521;DHT22;32291;52.010;4.446;2024-03-02T02:25:10;6.30;99.90
47521;DHT22;32291;52.010;4.446;2024-03-02T02:26:17;6.30;99.90
47521;DHT22;32291;52.010;4.446;2024-03-02T02:27:24;6.40;99.90
47521;DHT22;32291;52.010;4.446;2024-03-02T02:28:26;6.30;99.90
47521;DHT22;32291;52.010;4.446;2024-03-02T02:29:33;6.30;99.90
47521;DHT22;32291;52.010;4.446;2024-03-02T02:30:35;6.30;99.90
47521;DHT22;32291;52.010;4.446;2024-03-02T02:31:40;6.30;99.90
47521;DHT22;32291;52.010;4.446;2024-03-02T02:32:43;6.30;99.90
47521;DHT22;32291;52.010;4.446;2024-03-02T02:33:50;6.30;99.90
47521;DHT22;32291;52.010;4.446;2024-03-02T02:34:57;6.30;99.90
47521;DHT22;32291;52.010;4.446;2024-03-02T02:36:04;6.30;99.90
47521;DHT22;32291;52.010;4.446;2024-03-02T02:37:07;6.30;99.90
47521;DHT22;32291;52.010;4.446;2024-03-02T02:38:09;6.30;99.90
47521;DHT22;32291;52.010;4.446;2024-03-02T02:39:15;6.30;99.90
47521;DHT22;32291;52.010;4.446;2024-03-02T02:40:24;6.40;99.90
47521;DHT22;32291;52.010;4.446;2024-03-02T02:41:31;6.40;99.90
47521;DHT22;32291;52.010;4.446;2024-03-02T02:42:38;6.30;99.90
47521;DHT22;32291;52.010;4.446;2024-03-02T02:43:45;6.30;99.90
47521;DHT22;32291;52.010;4.446;2024-03-02T02:44:47;6.30;99.90
47521;DHT22;32291;52.010;4.446;2024-03-02T02:45:54;6.30;99.90
47521;DHT22;32291;52.010;4.446;2024-03-02T02:47:01;6.20;99.90
47521;DHT22;32291;52.010;4.446;2024-03-02T02:48:08;6.30;99.90
47521;DHT22;32291;52.010;4.446;2024-03-02T02:49:14;6.30;99.90
47521;DHT22;32291;52.010;4.446;2024-03-02T02:50:21;6.30;99.90
47521;DHT22;32291;52.010;4.446;2024-03-02T02:51:28;6.30;99.90
47521;DHT22;32291;52.010;4.446;2024-03-02T02:52:36;6.20;99.90
47521;DHT22;32291;52.010;4.446;2024-03-02T02:53:46;6.20;99.90
47521;DHT22;32291;52.010;4.446;2024-03-02T02:54:53;6.30;99.90
47521;DHT22;32291;52.010;4.446;2024-03-02T02:56:00;6.30;99.90
47521;DHT22;32291;52.010;4.446;2024-03-02T02:57:06;6.30;99.90
47521;DHT22;32291;52.010;4.446;2024-03-02T02:58:13;6.30;99.90
47521;DHT22;32291;52.010;4.446;2024-03-02T02:59:16;6.30;99.90
47521;DHT22;32291;52.010;4.446;2024-03-02T03:00:23;6.30;99.90
47521;DHT22;32291;52.010;4.446;2024-03-02T03:01:29;6.40;99.90
47521;DHT22;32291;52.010;4.446;2024-03-02T03:02:31;6.30;99.90
47521;DHT22;32291;52.010;4.446;2024-03-02T03:03:34;6.30;99.90
47521;DHT22;32291;52.010;4.446;2024-03-02T03:04:41;6.30;99.90
47521;DHT22;32291;52.010;4.446;2024-03-02T03:05:48;6.30;99.90
47521;DHT22;32291;52.010;4.446;2024-03-02T03:06:55;6.40;99.90
47521;DHT22;32291;52.010;4.446;2024-03-02T03:08:02;6.30;99.90
47521;DHT22;32291;52.010;4.446;2024-03-02T03:09:09;6.40;99.90
47521;DHT22;32291;52.010;4.446;2024-03-02T03:10:17;6.40;99.90
47521;DHT22;32291;52.010;4.446;2024-03-02T03:11:24;6.40;99.90
47521;DHT22;32291;52.010;4.446;2024-03-02T03:12:28;6.40;99.90
47521;DHT22;32291;52.010;4.446;2024-03-02T03:13:35;6.40;99.90
47521;DHT22;32291;52.010;4.446;2024-03-02T03:14:37;6.40;99.90
47521;DHT22;32291;52.010;4.446;2024-03-02T03:15:44;6.40;99.90
47521;DHT22;32291;52.010;4.446;2024-03-02T03:16:46;6.40;99.90
47521;DHT22;32291;52.010;4.446;2024-03-02T03:17:54;6.40;99.90
47521;DHT22;32291;52.010;4.446;2024-03-02T03:19:01;6.40;99.90
47521;DHT22;32291;52.010;4.446;2024-03-02T03:20:04;6.50;99.90
47521;DHT22;32291;52.010;4.446;2024-03-02T03:21:13;6.50;99.90
47521;DHT22;32291;52.010;4.446;2024-03-02T03:22:19;6.40;99.90
47521;DHT22;32291;52.010;4.446;2024-03-02T03:23:26;6.40;99.90
47521;DHT22;32291;52.010;4.446;2024-03-02T03:24:33;6.40;99.90
47521;DHT22;32291;52.010;4.446;2024-03-02T03:25:35;6.50;99.90
47521;DHT22;32291;52.010;4.446;2024-03-02T03:26:45;6.50;99.90
47521;DHT22;32291;52.010;4.446;2024-03-02T03:27:52;6.50;99.90
47521;DHT22;32291;52.010;4.446;2024-03-02T03:28:57;6.50;99.90
47521;DHT22;32291;52.010;4.446;2024-03-02T03:30:04;6.50;99.90
47521;DHT22;32291;52.010;4.446;2024-03-02T03:31:14;6.50;99.90
47521;DHT22;32291;52.010;4.446;2024-03-02T03:32:17;6.50;99.90
47521;DHT22;32291;52.010;4.446;2024-03-02T03:33:23;6.50;99.90
47521;DHT22;32291;52.010;4.446;2024-03-02T03:34:34;6.50;99.90
47521;DHT22;32291;52.010;4.446;2024-03-02T03:35:41;6.60;99.90
47521;DHT22;32291;52.010;4.446;2024-03-02T03:36:43;6.50;99.90
47521;DHT22;32291;52.010;4.446;2024-03-02T03:37:45;6.50;99.90
47521;DHT22;32291;52.010;4.446;2024-03-02T03:38:52;6.50;99.90
47521;DHT22;32291;52.010;4.446;2024-03-02T03:39:54;6.50;99.90
47521;DHT22;32291;52.010;4.446;2024-03-02T03:40:56;6.50;99.90
47521;DHT22;32291;52.010;4.446;2024-03-02T03:42:03;6.60;99.90
47521;DHT22;32291;52.010;4.446;2024-03-02T03:43:11;6.50;99.90
47521;DHT22;32291;52.010;4.446;2024-03-02T03:44:13;6.60;99.90
47521;DHT22;32291;52.010;4.446;2024-03-02T03:45:20;6.60;99.90
47521;DHT22;32291;52.010;4.446;2024-03-02T03:46:27;6.60;99.90
47521;DHT22;32291;52.010;4.446;2024-03-02T03:47:31;6.60;99.90
47521;DHT22;32291;52.010;4.446;2024-03-02T03:48:38;6.60;99.90
47521;DHT22;32291;52.010;4.446;2024-03-02T03:49:40;6.60;99.90
47521;DHT22;32291;52.010;4.446;2024-03-02T03:50:42;6.60;99.90
47521;DHT22;32291;52.010;4.446;2024-03-02T03:51:44;6.60;99.90
47521;DHT22;32291;52.010;4.446;2024-03-02T03:52:47;6.60;99.90
47521;DHT22;32291;52.010;4.446;2024-03-02T03:53:53;6.60;99.90
47521;DHT22;32291;52.010;4.446;2024-03-02T03:55:00;6.70;99.90
47521;DHT22;32291;52.010;4.446;2024-03-02T03:56:07;6.60;99.90
47521;DHT22;32291;52.010;4.446;2024-03-02T03:57:14;6.60;99.90
47521;DHT22;32291;52.010;4.446;2024-03-02T03:58:16;6.50;99.90
47521;DHT22;32291;52.010;4.446;2024-03-02T03:59:25;6.60;99.90
47521;DHT22;32291;52.010;4.446;2024-03-02T04:00:32;6.60;99.90
47521;DHT22;32291;52.010;4.446;2024-03-02T04:01:34;6.50;99.90
47521;DHT22;32291;52.010;4.446;2024-03-02T04:02:40;6.60;99.90
47521;DHT22;32291;52.010;4.446;2024-03-02T04:03:47;6.50;99.90
47521;DHT22;32291;52.010;4.446;2024-03-02T04:04:54;6.50;99.90
47521;DHT22;32291;52.010;4.446;2024-03-02T04:05:57;6.50;99.90
47521;DHT22;32291;52.010;4.446;2024-03-02T04:07:04;6.60;99.90
47521;DHT22;32291;52.010;4.446;2024-03-02T04:08:11;6.60;99.90
47521;DHT22;32291;52.010;4.446;2024-03-02T04:09:13;6.50;99.90
47521;DHT22;32291;52.010;4.446;2024-03-02T04:10:20;6.50;99.90
47521;DHT22;32291;52.010;4.446;2024-03-02T04:11:27;6.60;99.90
47521;DHT22;32291;52.010;4.446;2024-03-02T04:12:29;6.40;99.90
47521;DHT22;32291;52.010;4.446;2024-03-02T04:13:36;6.50;99.90
47521;DHT22;32291;52.010;4.446;2024-03-02T04:14:38;6.40;99.90
47521;DHT22;32291;52.010;4.446;2024-03-02T04:15:41;6.40;99.90
47521;DHT22;32291;52.010;4.446;2024-03-02T04:16:48;6.30;99.90
47521;DHT22;32291;52.010;4.446;2024-03-02T04:17:54;6.40;99.90
47521;DHT22;32291;52.010;4.446;2024-03-02T04:19:01;6.30;99.90
47521;DHT22;32291;52.010;4.446;2024-03-02T04:20:08;6.40;99.90
47521;DHT22;32291;52.010;4.446;2024-03-02T04:21:11;6.40;99.90
47521;DHT22;32291;52.010;4.446;2024-03-02T04:22:13;6.30;99.90
47521;DHT22;32291;52.010;4.446;2024-03-02T04:23:20;6.30;99.90
47521;DHT22;32291;52.010;4.446;2024-03-02T04:24:27;6.30;99.90
47521;DHT22;32291;52.010;4.446;2024-03-02T04:25:33;6.30;99.90
47521;DHT22;32291;52.010;4.446;2024-03-02T04:26:40;6.30;99.90
47521;DHT22;32291;52.010;4.446;2024-03-02T04:27:47;6.20;99.90
47521;DHT22;32291;52.010;4.446;2024-03-02T04:28:54;6.20;99.90
47521;DHT22;32291;52.010;4.446;2024-03-02T04:30:01;6.20;99.90
47521;DHT22;32291;52.010;4.446;2024-03-02T04:31:03;6.10;99.90
47521;DHT22;32291;52.010;4.446;2024-03-02T04:32:10;6.10;99.90
47521;DHT22;32291;52.010;4.446;2024-03-02T04:33:17;6.10;99.90
47521;DHT22;32291;52.010;4.446;2024-03-02T04:34:23;6.00;99.90
47521;DHT22;32291;52.010;4.446;2024-03-02T04:35:26;6.00;99.90
47521;DHT22;32291;52.010;4.446;2024-03-02T04:36:33;6.00;99.90
47521;DHT22;32291;52.010;4.446;2024-03-02T04:37:35;6.00;99.90
47521;DHT22;32291;52.010;4.446;2024-03-02T04:38:42;6.00;99.90
47521;DHT22;32291;52.010;4.446;2024-03-02T04:39:48;6.00;99.90
47521;DHT22;32291;52.010;4.446;2024-03-02T04:40:55;6.00;99.90
47521;DHT22;32291;52.010;4.446;2024-03-02T04:41:57;6.00;99.90
47521;DHT22;32291;52.010;4.446;2024-03-02T04:43:00;6.00;99.90
47521;DHT22;32291;52.010;4.446;2024-03-02T04:44:02;6.00;99.90
47521;DHT22;32291;52.010;4.446;2024-03-02T04:45:09;6.00;99.90
47521;DHT22;32291;52.010;4.446;2024-03-02T04:46:16;6.00;99.90
47521;DHT22;32291;52.010;4.446;2024-03-02T04:47:18;6.00;99.90
47521;DHT22;32291;52.010;4.446;2024-03-02T04:48:25;6.00;99.90
47521;DHT22;32291;52.010;4.446;2024-03-02T04:49:32;6.10;99.90
47521;DHT22;32291;52.010;4.446;2024-03-02T04:50:39;6.10;99.90
47521;DHT22;32291;52.010;4.446;2024-03-02T04:51:46;6.10;99.90
47521;DHT22;32291;52.010;4.446;2024-03-02T04:52:54;6.10;99.90
47521;DHT22;32291;52.010;4.446;2024-03-02T04:54:00;6.10;99.90
47521;DHT22;32291;52.010;4.446;2024-03-02T04:55:07;6.10;99.90
47521;DHT22;32291;52.010;4.446;2024-03-02T04:56:18;6.10;99.90
47521;DHT22;32291;52.010;4.446;2024-03-02T04:57:33;6.20;99.90
47521;DHT22;32291;52.010;4.446;2024-03-02T04:58:35;6.20;99.90
47521;DHT22;32291;52.010;4.446;2024-03-02T04:59:37;6.20;99.90
47521;DHT22;32291;52.010;4.446;2024-03-02T05:00:44;6.20;99.90
47521;DHT22;32291;52.010;4.446;2024-03-02T05:01:52;6.20;99.90
47521;DHT22;32291;52.010;4.446;2024-03-02T05:02:59;6.20;99.90
47521;DHT22;32291;52.010;4.446;2024-03-02T05:04:06;6.20;99.90
47521;DHT22;32291;52.010;4.446;2024-03-02T05:05:16;6.20;99.90
47521;DHT22;32291;52.010;4.446;2024-03-02T05:06:23;6.20;99.90
47521;DHT22;32291;52.010;4.446;2024-03-02T05:07:30;6.20;99.90
47521;DHT22;32291;52.010;4.446;2024-03-02T05:08:38;6.10;99.90
47521;DHT22;32291;52.010;4.446;2024-03-02T05:09:40;6.10;99.90
47521;DHT22;32291;52.010;4.446;2024-03-02T05:10:48;6.10;99.90
47521;DHT22;32291;52.010;4.446;2024-03-02T05:11:52;6.10;99.90
47521;DHT22;32291;52.010;4.446;2024-03-02T05:13:16;6.10;99.90
47521;DHT22;32291;52.010;4.446;2024-03-02T05:14:24;6.10;99.90
47521;DHT22;32291;52.010;4.446;2024-03-02T05:15:26;6.20;99.90
47521;DHT22;32291;52.010;4.446;2024-03-02T05:16:34;6.20;99.90
47521;DHT22;32291;52.010;4.446;2024-03-02T05:17:38;6.20;99.90
47521;DHT22;32291;52.010;4.446;2024-03-02T05:18:40;6.20;99.90
47521;DHT22;32291;52.010;4.446;2024-03-02T05:19:47;6.30;99.90
47521;DHT22;32291;52.010;4.446;2024-03-02T05:20:49;6.40;99.90
47521;DHT22;32291;52.010;4.446;2024-03-02T05:21:56;6.30;99.90
47521;DHT22;32291;52.010;4.446;2024-03-02T05:22:58;6.30;99.90
47521;DHT22;32291;52.010;4.446;2024-03-02T05:24:05;6.30;99.90
47521;DHT22;32291;52.010;4.446;2024-03-02T05:25:15;6.30;99.90
47521;DHT22;32291;52.010;4.446;2024-03-02T05:26:17;6.30;99.90
47521;DHT22;32291;52.010;4.446;2024-03-02T05:27:23;6.30;99.90
47521;DHT22;32291;52.010;4.446;2024-03-02T05:28:30;6.30;99.90
47521;DHT22;32291;52.010;4.446;2024-03-02T05:29:37;6.30;99.90
47521;DHT22;32291;52.010;4.446;2024-03-02T05:30:39;6.30;99.90
47521;DHT22;32291;52.010;4.446;2024-03-02T05:31:44;6.30;99.90
47521;DHT22;32291;52.010;4.446;2024-03-02T05:32:46;6.30;99.90
47521;DHT22;32291;52.010;4.446;2024-03-02T05:33:53;6.30;99.90
47521;DHT22;32291;52.010;4.446;2024-03-02T05:34:59;6.30;99.90
47521;DHT22;32291;52.010;4.446;2024-03-02T05:36:07;6.30;99.90
47521;DHT22;32291;52.010;4.446;2024-03-02T05:37:14;6.30;99.90
47521;DHT22;32291;52.010;4.446;2024-03-02T05:38:20;6.20;99.90
47521;DHT22;32291;52.010;4.446;2024-03-02T05:39:28;6.20;99.90
47521;DHT22;32291;52.010;4.446;2024-03-02T05:40:30;6.20;99.90
47521;DHT22;32291;52.010;4.446;2024-03-02T05:41:37;6.20;99.90
47521;DHT22;32291;52.010;4.446;2024-03-02T05:42:44;6.20;99.90
47521;DHT22;32291;52.010;4.446;2024-03-02T05:43:47;6.10;99.90
47521;DHT22;32291;52.010;4.446;2024-03-02T05:44:49;6.10;99.90
47521;DHT22;32291;52.010;4.446;2024-03-02T05:45:55;6.10;99.90
47521;DHT22;32291;52.010;4.446;2024-03-02T05:47:03;6.10;99.90
47521;DHT22;32291;52.010;4.446;2024-03-02T05:48:10;6.10;99.90
47521;DHT22;32291;52.010;4.446;2024-03-02T05:49:12;6.10;99.90
47521;DHT22;32291;52.010;4.446;2024-03-02T05:50:19;6.10;99.90
47521;DHT22;32291;52.010;4.446;2024-03-02T05:51:26;6.20;99.90
47521;DHT22;32291;52.010;4.446;2024-03-02T05:52:28;6.20;99.90
47521;DHT22;32291;52.010;4.446;2024-03-02T05:53:35;6.20;99.90
47521;DHT22;32291;52.010;4.446;2024-03-02T05:54:44;6.20;99.90
47521;DHT22;32291;52.010;4.446;2024-03-02T05:55:46;6.20;99.90
47521;DHT22;32291;52.010;4.446;2024-03-02T05:56:53;6.20;99.90
47521;DHT22;32291;52.010;4.446;2024-03-02T05:58:00;6.20;99.90
47521;DHT22;32291;52.010;4.446;2024-03-02T05:59:11;6.30;99.90
47521;DHT22;32291;52.010;4.446;2024-03-02T06:00:18;6.30;99.90
47521;DHT22;32291;52.010;4.446;2024-03-02T06:01:25;6.30;99.90
47521;DHT22;32291;52.010;4.446;2024-03-02T06:02:34;6.30;99.90
47521;DHT22;32291;52.010;4.446;2024-03-02T06:03:37;6.30;99.90
47521;DHT22;32291;52.010;4.446;2024-03-02T06:04:43;6.20;99.90
47521;DHT22;32291;52.010;4.446;2024-03-02T06:05:50;6.30;99.90
47521;DHT22;32291;52.010;4.446;2024-03-02T06:06:58;6.30;99.90
47521;DHT22;32291;52.010;4.446;2024-03-02T06:08:00;6.30;99.90
47521;DHT22;32291;52.010;4.446;2024-03-02T06:09:08;6.30;99.90
47521;DHT22;32291;52.010;4.446;2024-03-02T06:10:15;6.30;99.90
47521;DHT22;32291;52.010;4.446;2024-03-02T06:11:22;6.20;99.90
47521;DHT22;32291;52.010;4.446;2024-03-02T06:12:31;6.30;99.90
47521;DHT22;32291;52.010;4.446;2024-03-02T06:13:34;6.30;99.90
47521;DHT22;32291;52.010;4.446;2024-03-02T06:14:41;6.30;99.90
47521;DHT22;32291;52.010;4.446;2024-03-02T06:15:43;6.20;99.90
47521;DHT22;32291;52.010;4.446;2024-03-02T06:16:50;6.30;99.90
47521;DHT22;32291;52.010;4.446;2024-03-02T06:17:56;6.30;99.90
47521;DHT22;32291;52.010;4.446;2024-03-02T06:19:03;6.20;99.90
47521;DHT22;32291;52.010;4.446;2024-03-02T06:20:11;6.30;99.90
47521;DHT22;32291;52.010;4.446;2024-03-02T06:21:13;6.30;99.90
47521;DHT22;32291;52.010;4.446;2024-03-02T06:22:20;6.40;99.90
47521;DHT22;32291;52.010;4.446;2024-03-02T06:23:27;6.30;99.90
47521;DHT22;32291;52.010;4.446;2024-03-02T06:24:30;6.30;99.90
47521;DHT22;32291;52.010;4.446;2024-03-02T06:25:32;6.30;99.90
47521;DHT22;32291;52.010;4.446;2024-03-02T06:26:34;6.40;99.90
47521;DHT22;32291;52.010;4.446;2024-03-02T06:27:39;6.40;99.90
47521;DHT22;32291;52.010;4.446;2024-03-02T06:28:46;6.30;99.90
47521;DHT22;32291;52.010;4.446;2024-03-02T06:29:53;6.40;99.90
47521;DHT22;32291;52.010;4.446;2024-03-02T06:31:02;6.40;99.90
47521;DHT22;32291;52.010;4.446;2024-03-02T06:32:04;6.40;99.90
47521;DHT22;32291;52.010;4.446;2024-03-02T06:33:11;6.40;99.90
47521;DHT22;32291;52.010;4.446;2024-03-02T06:34:18;6.40;99.90
47521;DHT22;32291;52.010;4.446;2024-03-02T06:35:25;6.40;99.90
47521;DHT22;32291;52.010;4.446;2024-03-02T06:36:27;6.50;99.90
47521;DHT22;32291;52.010;4.446;2024-03-02T06:37:34;6.40;99.90
47521;DHT22;32291;52.010;4.446;2024-03-02T06:38:41;6.40;99.90
47521;DHT22;32291;52.010;4.446;2024-03-02T06:39:48;6.40;99.90
47521;DHT22;32291;52.010;4.446;2024-03-02T06:40:55;6.40;99.90
47521;DHT22;32291;52.010;4.446;2024-03-02T06:42:02;6.50;99.90
47521;DHT22;32291;52.010;4.446;2024-03-02T06:43:04;6.40;99.90
47521;DHT22;32291;52.010;4.446;2024-03-02T06:44:11;6.40;99.90
47521;DHT22;32291;52.010;4.446;2024-03-02T06:45:18;6.40;99.90
47521;DHT22;32291;52.010;4.446;2024-03-02T06:46:25;6.40;99.90
47521;DHT22;32291;52.010;4.446;2024-03-02T06:47:27;6.30;99.90
47521;DHT22;32291;52.010;4.446;2024-03-02T06:48:32;6.30;99.90
47521;DHT22;32291;52.010;4.446;2024-03-02T06:49:34;6.30;99.90
47521;DHT22;32291;52.010;4.446;2024-03-02T06:50:41;6.30;99.90
47521;DHT22;32291;52.010;4.446;2024-03-02T06:51:48;6.40;99.90
47521;DHT22;32291;52.010;4.446;2024-03-02T06:52:51;6.30;99.90
47521;DHT22;32291;52.010;4.446;2024-03-02T06:53:53;6.30;99.90
47521;DHT22;32291;52.010;4.446;2024-03-02T06:55:00;6.30;99.90
47521;DHT22;32291;52.010;4.446;2024-03-02T06:56:03;6.30;99.90
47521;DHT22;32291;52.010;4.446;2024-03-02T06:57:10;6.30;99.90
47521;DHT22;32291;52.010;4.446;2024-03-02T06:58:13;6.30;99.90
47521;DHT22;32291;52.010;4.446;2024-03-02T06:59:23;6.30;99.90
47521;DHT22;32291;52.010;4.446;2024-03-02T07:00:26;6.30;99.90
47521;DHT22;32291;52.010;4.446;2024-03-02T07:01:29;6.20;99.90
47521;DHT22;32291;52.010;4.446;2024-03-02T07:02:36;6.20;99.90
47521;DHT22;32291;52.010;4.446;2024-03-02T07:03:41;6.20;99.90
47521;DHT22;32291;52.010;4.446;2024-03-02T07:04:43;6.20;99.90